sensor_id;sensor_type;location;lat;lon;timestamp;P1;durP1;ratioP1;P2;durP2;ratioP2
7525;SDS011;3804;50.860;6.208;2023-04-24T00:00:05;1.60;;;1.40;;
7525;SDS011;3804;50.860;6.208;2023-04-24T00:02:32;1.97;;;1.60;;
7525;SDS011;3804;50.860;6.208;2023-04-24T00:04:59;1.93;;;1.63;;
7525;SDS011;3804;50.860;6.208;2023-04-24T00:07:29;3.13;;;1.80;;
7525;SDS011;3804;50.860;6.208;2023-04-24T00:09:56;1.60;;;1.50;;
7525;SDS011;3804;50.860;6.208;2023-04-24T00:12:23;2.97;;;1.70;;
7525;SDS011;3804;50.860;6.208;2023-04-24T00:14:50;4.33;;;2.07;;
7525;SDS011;3804;50.860;6.208;2023-04-24T00:17:17;2.87;;;1.83;;
7525;SDS011;3804;50.860;6.208;2023-04-24T00:19:47;3.47;;;1.77;;
7525;SDS011;3804;50.860;6.208;2023-04-24T00:22:14;3.57;;;2.07;;
7525;SDS011;3804;50.860;6.208;2023-04-24T00:24:41;3.27;;;2.50;;
7525;SDS011;3804;50.860;6.208;2023-04-24T00:27:07;4.97;;;3.40;;
7525;SDS011;3804;50.860;6.208;2023-04-24T00:29:34;3.43;;;3.13;;
7525;SDS011;3804;50.860;6.208;2023-04-24T00:32:01;3.90;;;3.20;;
7525;SDS011;3804;50.860;6.208;2023-04-24T00:34:28;4.13;;;3.17;;
7525;SDS011;3804;50.860;6.208;2023-04-24T00:36:55;3.40;;;3.00;;
7525;SDS011;3804;50.860;6.208;2023-04-24T00:39:22;3.57;;;3.07;;
7525;SDS011;3804;50.860;6.208;2023-04-24T00:41:49;4.87;;;3.13;;
7525;SDS011;3804;50.860;6.208;2023-04-24T00:44:17;5.30;;;3.60;;
7525;SDS011;3804;50.860;6.208;2023-04-24T00:46:44;3.93;;;3.33;;
7525;SDS011;3804;50.860;6.208;2023-04-24T00:49:12;5.07;;;4.50;;
7525;SDS011;3804;50.860;6.208;2023-04-24T00:51:39;6.97;;;4.00;;
7525;SDS011;3804;50.860;6.208;2023-04-24T00:54:07;4.47;;;3.90;;
7525;SDS011;3804;50.860;6.208;2023-04-24T00:56:34;6.57;;;4.13;;
7525;SDS011;3804;50.860;6.208;2023-04-24T00:59:01;5.27;;;4.40;;
7525;SDS011;3804;50.860;6.208;2023-04-24T01:01:27;5.47;;;4.47;;
7525;SDS011;3804;50.860;6.208;2023-04-24T01:03:55;6.97;;;5.37;;
7525;SDS011;3804;50.860;6.208;2023-04-24T01:06:23;4.97;;;4.47;;
7525;SDS011;3804;50.860;6.208;2023-04-24T01:08:50;7.43;;;5.07;;
7525;SDS011;3804;50.860;6.208;2023-04-24T01:11:17;6.67;;;5.60;;
7525;SDS011;3804;50.860;6.208;2023-04-24T01:13:44;7.00;;;5.20;;
7525;SDS011;3804;50.860;6.208;2023-04-24T01:16:11;6.77;;;5.30;;
7525;SDS011;3804;50.860;6.208;2023-04-24T01:18:38;8.27;;;6.27;;
7525;SDS011;3804;50.860;6.208;2023-04-24T01:21:06;10.03;;;5.90;;
7525;SDS011;3804;50.860;6.208;2023-04-24T01:23:34;7.30;;;6.40;;
7525;SDS011;3804;50.860;6.208;2023-04-24T01:26:01;10.00;;;6.20;;
7525;SDS011;3804;50.860;6.208;2023-04-24T01:28:28;11.57;;;6.83;;
7525;SDS011;3804;50.860;6.208;2023-04-24T01:30:56;8.97;;;6.83;;
7525;SDS011;3804;50.860;6.208;2023-04-24T01:33:23;10.13;;;6.80;;
7525;SDS011;3804;50.860;6.208;2023-04-24T01:35:50;9.93;;;7.23;;
7525;SDS011;3804;50.860;6.208;2023-04-24T01:38:17;10.53;;;6.67;;
7525;SDS011;3804;50.860;6.208;2023-04-24T01:40:43;9.93;;;7.03;;
7525;SDS011;3804;50.860;6.208;2023-04-24T01:43:11;8.00;;;6.73;;
7525;SDS011;3804;50.860;6.208;2023-04-24T01:45:38;10.17;;;6.83;;
7525;SDS011;3804;50.860;6.208;2023-04-24T01:48:04;10.97;;;7.63;;
7525;SDS011;3804;50.860;6.208;2023-04-24T01:50:31;9.80;;;6.77;;
7525;SDS011;3804;50.860;6.208;2023-04-24T01:52:59;8.27;;;6.10;;
7525;SDS011;3804;50.860;6.208;2023-04-24T01:55:25;9.17;;;6.33;;
7525;SDS011;3804;50.860;6.208;2023-04-24T01:57:52;7.83;;;6.10;;
7525;SDS011;3804;50.860;6.208;2023-04-24T02:00:22;8.63;;;6.77;;
7525;SDS011;3804;50.860;6.208;2023-04-24T02:02:48;9.43;;;6.90;;
7525;SDS011;3804;50.860;6.208;2023-04-24T02:05:19;7.90;;;4.97;;
7525;SDS011;3804;50.860;6.208;2023-04-24T02:07:47;10.33;;;6.80;;
7525;SDS011;3804;50.860;6.208;2023-04-24T02:10:13;8.37;;;6.17;;
7525;SDS011;3804;50.860;6.208;2023-04-24T02:12:41;9.97;;;6.60;;
7525;SDS011;3804;50.860;6.208;2023-04-24T02:15:08;8.70;;;6.30;;
7525;SDS011;3804;50.860;6.208;2023-04-24T02:17:36;10.47;;;6.57;;
7525;SDS011;3804;50.860;6.208;2023-04-24T02:20:03;9.90;;;6.77;;
7525;SDS011;3804;50.860;6.208;2023-04-24T02:22:31;10.10;;;7.47;;
7525;SDS011;3804;50.860;6.208;2023-04-24T02:25:00;8.43;;;5.93;;
7525;SDS011;3804;50.860;6.208;2023-04-24T02:27:28;10.20;;;6.70;;
7525;SDS011;3804;50.860;6.208;2023-04-24T02:29:56;10.60;;;6.90;;
7525;SDS011;3804;50.860;6.208;2023-04-24T02:32:22;9.80;;;5.77;;
7525;SDS011;3804;50.860;6.208;2023-04-24T02:34:49;11.03;;;7.07;;
7525;SDS011;3804;50.860;6.208;2023-04-24T02:37:16;7.57;;;6.47;;
7525;SDS011;3804;50.860;6.208;2023-04-24T02:39:43;10.83;;;6.93;;
7525;SDS011;3804;50.860;6.208;2023-04-24T02:42:10;10.70;;;7.30;;
7525;SDS011;3804;50.860;6.208;2023-04-24T02:44:36;10.33;;;6.90;;
7525;SDS011;3804;50.860;6.208;2023-04-24T02:47:04;9.23;;;7.10;;
7525;SDS011;3804;50.860;6.208;2023-04-24T02:49:31;10.90;;;7.00;;
7525;SDS011;3804;50.860;6.208;2023-04-24T02:51:57;8.17;;;6.90;;
7525;SDS011;3804;50.860;6.208;2023-04-24T02:54:24;10.83;;;7.20;;
7525;SDS011;3804;50.860;6.208;2023-04-24T02:56:51;9.37;;;7.33;;
7525;SDS011;3804;50.860;6.208;2023-04-24T02:59:18;11.47;;;6.97;;
7525;SDS011;3804;50.860;6.208;2023-04-24T03:01:45;9.70;;;7.07;;
7525;SDS011;3804;50.860;6.208;2023-04-24T03:04:11;11.27;;;7.83;;
7525;SDS011;3804;50.860;6.208;2023-04-24T03:06:39;9.07;;;7.03;;
7525;SDS011;3804;50.860;6.208;2023-04-24T03:09:06;12.03;;;7.50;;
7525;SDS011;3804;50.860;6.208;2023-04-24T03:11:32;9.43;;;7.00;;
7525;SDS011;3804;50.860;6.208;2023-04-24T03:13:59;12.37;;;7.93;;
7525;SDS011;3804;50.860;6.208;2023-04-24T03:16:26;14.97;;;8.20;;
7525;SDS011;3804;50.860;6.208;2023-04-24T03:18:54;12.23;;;8.63;;
7525;SDS011;3804;50.860;6.208;2023-04-24T03:21:24;14.93;;;8.07;;
7525;SDS011;3804;50.860;6.208;2023-04-24T03:23:51;12.67;;;7.60;;
7525;SDS011;3804;50.860;6.208;2023-04-24T03:26:18;14.53;;;8.53;;
7525;SDS011;3804;50.860;6.208;2023-04-24T03:28:59;11.17;;;7.53;;
7525;SDS011;3804;50.860;6.208;2023-04-24T03:31:26;10.47;;;8.30;;
7525;SDS011;3804;50.860;6.208;2023-04-24T03:33:52;13.60;;;8.40;;
7525;SDS011;3804;50.860;6.208;2023-04-24T03:36:19;9.83;;;6.33;;
7525;SDS011;3804;50.860;6.208;2023-04-24T03:38:46;11.77;;;7.37;;
7525;SDS011;3804;50.860;6.208;2023-04-24T03:41:23;8.90;;;6.50;;
7525;SDS011;3804;50.860;6.208;2023-04-24T03:44:08;9.67;;;6.03;;
7525;SDS011;3804;50.860;6.208;2023-04-24T03:46:35;14.10;;;7.30;;
7525;SDS011;3804;50.860;6.208;2023-04-24T03:49:02;10.23;;;7.00;;
7525;SDS011;3804;50.860;6.208;2023-04-24T03:51:34;9.93;;;6.23;;
7525;SDS011;3804;50.860;6.208;2023-04-24T03:54:09;10.03;;;7.20;;
7525;SDS011;3804;50.860;6.208;2023-04-24T03:56:39;11.60;;;6.87;;
7525;SDS011;3804;50.860;6.208;2023-04-24T03:59:06;8.93;;;6.57;;
7525;SDS011;3804;50.860;6.208;2023-04-24T04:01:34;9.17;;;7.27;;
7525;SDS011;3804;50.860;6.208;2023-04-24T04:04:10;9.70;;;6.60;;
7525;SDS011;3804;50.860;6.208;2023-04-24T04:06:38;9.00;;;6.60;;
7525;SDS011;3804;50.860;6.208;2023-04-24T04:09:06;9.43;;;6.57;;
7525;SDS011;3804;50.860;6.208;2023-04-24T04:11:34;9.47;;;7.17;;
7525;SDS011;3804;50.860;6.208;2023-04-24T04:14:02;10.57;;;7.33;;
7525;SDS011;3804;50.860;6.208;2023-04-24T04:16:30;11.60;;;7.47;;
7525;SDS011;3804;50.860;6.208;2023-04-24T04:19:01;9.60;;;6.97;;
7525;SDS011;3804;50.860;6.208;2023-04-24T04:21:29;11.10;;;7.53;;
7525;SDS011;3804;50.860;6.208;2023-04-24T04:24:20;9.97;;;7.90;;
7525;SDS011;3804;50.860;6.208;2023-04-24T04:26:50;10.57;;;8.07;;
7525;SDS011;3804;50.860;6.208;2023-04-24T04:29:30;10.40;;;7.40;;
7525;SDS011;3804;50.860;6.208;2023-04-24T04:31:59;8.77;;;6.87;;
7525;SDS011;3804;50.860;6.208;2023-04-24T04:34:26;11.00;;;7.97;;
7525;SDS011;3804;50.860;6.208;2023-04-24T04:36:53;14.53;;;8.90;;
7525;SDS011;3804;50.860;6.208;2023-04-24T04:39:46;12.57;;;8.17;;
7525;SDS011;3804;50.860;6.208;2023-04-24T04:42:19;13.77;;;8.70;;
7525;SDS011;3804;50.860;6.208;2023-04-24T04:44:46;14.17;;;8.20;;
7525;SDS011;3804;50.860;6.208;2023-04-24T04:47:18;10.67;;;7.93;;
7525;SDS011;3804;50.860;6.208;2023-04-24T04:49:46;13.93;;;9.00;;
7525;SDS011;3804;50.860;6.208;2023-04-24T04:52:20;11.90;;;8.43;;
7525;SDS011;3804;50.860;6.208;2023-04-24T04:54:56;13.70;;;9.40;;
7525;SDS011;3804;50.860;6.208;2023-04-24T04:57:30;13.30;;;8.97;;
7525;SDS011;3804;50.860;6.208;2023-04-24T04:59:57;11.30;;;8.77;;
7525;SDS011;3804;50.860;6.208;2023-04-24T05:02:38;10.97;;;8.90;;
7525;SDS011;3804;50.860;6.208;2023-04-24T05:05:06;12.43;;;8.63;;
7525;SDS011;3804;50.860;6.208;2023-04-24T05:07:34;12.40;;;8.83;;
7525;SDS011;3804;50.860;6.208;2023-04-24T05:10:01;13.80;;;8.73;;
7525;SDS011;3804;50.860;6.208;2023-04-24T05:12:28;13.53;;;8.03;;
7525;SDS011;3804;50.860;6.208;2023-04-24T05:14:56;11.50;;;7.53;;
7525;SDS011;3804;50.860;6.208;2023-04-24T05:17:25;11.27;;;7.87;;
7525;SDS011;3804;50.860;6.208;2023-04-24T05:19:54;10.40;;;8.23;;
7525;SDS011;3804;50.860;6.208;2023-04-24T05:22:21;8.83;;;6.07;;
7525;SDS011;3804;50.860;6.208;2023-04-24T05:24:50;9.80;;;6.37;;
7525;SDS011;3804;50.860;6.208;2023-04-24T05:27:32;9.87;;;6.67;;
7525;SDS011;3804;50.860;6.208;2023-04-24T05:30:01;9.07;;;6.10;;
7525;SDS011;3804;50.860;6.208;2023-04-24T05:32:28;7.03;;;4.83;;
7525;SDS011;3804;50.860;6.208;2023-04-24T05:34:55;6.97;;;5.17;;
7525;SDS011;3804;50.860;6.208;2023-04-24T05:37:22;8.27;;;5.37;;
7525;SDS011;3804;50.860;6.208;2023-04-24T05:39:49;6.23;;;5.00;;
7525;SDS011;3804;50.860;6.208;2023-04-24T05:42:17;9.50;;;5.83;;
7525;SDS011;3804;50.860;6.208;2023-04-24T05:44:43;6.70;;;4.53;;
7525;SDS011;3804;50.860;6.208;2023-04-24T05:47:10;6.50;;;5.27;;
7525;SDS011;3804;50.860;6.208;2023-04-24T05:49:37;8.10;;;5.33;;
7525;SDS011;3804;50.860;6.208;2023-04-24T05:52:05;7.77;;;5.50;;
7525;SDS011;3804;50.860;6.208;2023-04-24T05:54:36;6.63;;;4.60;;
7525;SDS011;3804;50.860;6.208;2023-04-24T05:57:03;6.90;;;5.20;;
7525;SDS011;3804;50.860;6.208;2023-04-24T05:59:48;6.73;;;4.70;;
7525;SDS011;3804;50.860;6.208;2023-04-24T06:02:16;5.40;;;4.50;;
7525;SDS011;3804;50.860;6.208;2023-04-24T06:04:44;5.80;;;4.47;;
7525;SDS011;3804;50.860;6.208;2023-04-24T06:07:11;4.73;;;3.90;;
7525;SDS011;3804;50.860;6.208;2023-04-24T06:09:41;5.87;;;4.23;;
7525;SDS011;3804;50.860;6.208;2023-04-24T06:12:08;5.23;;;4.10;;
7525;SDS011;3804;50.860;6.208;2023-04-24T06:14:58;5.33;;;4.37;;
7525;SDS011;3804;50.860;6.208;2023-04-24T06:17:45;7.13;;;4.83;;
7525;SDS011;3804;50.860;6.208;2023-04-24T06:20:15;7.23;;;4.50;;
7525;SDS011;3804;50.860;6.208;2023-04-24T06:22:41;7.53;;;4.67;;
7525;SDS011;3804;50.860;6.208;2023-04-24T06:25:09;6.70;;;5.13;;
7525;SDS011;3804;50.860;6.208;2023-04-24T06:27:36;6.20;;;5.03;;
7525;SDS011;3804;50.860;6.208;2023-04-24T06:30:03;6.57;;;4.60;;
7525;SDS011;3804;50.860;6.208;2023-04-24T06:32:30;5.27;;;4.77;;
7525;SDS011;3804;50.860;6.208;2023-04-24T06:34:58;5.87;;;5.27;;
7525;SDS011;3804;50.860;6.208;2023-04-24T06:37:26;5.67;;;4.40;;
7525;SDS011;3804;50.860;6.208;2023-04-24T06:39:53;6.33;;;5.13;;
7525;SDS011;3804;50.860;6.208;2023-04-24T06:42:20;7.30;;;5.10;;
7525;SDS011;3804;50.860;6.208;2023-04-24T06:44:51;6.20;;;4.53;;
7525;SDS011;3804;50.860;6.208;2023-04-24T06:47:17;5.60;;;4.03;;
7525;SDS011;3804;50.860;6.208;2023-04-24T06:49:45;7.23;;;4.00;;
7525;SDS011;3804;50.860;6.208;2023-04-24T06:52:12;5.70;;;3.27;;
7525;SDS011;3804;50.860;6.208;2023-04-24T06:54:41;4.77;;;2.57;;
7525;SDS011;3804;50.860;6.208;2023-04-24T06:57:08;5.47;;;2.70;;
7525;SDS011;3804;50.860;6.208;2023-04-24T06:59:34;3.70;;;3.37;;
7525;SDS011;3804;50.860;6.208;2023-04-24T07:02:01;3.10;;;2.80;;
7525;SDS011;3804;50.860;6.208;2023-04-24T07:04:29;4.07;;;2.50;;
7525;SDS011;3804;50.860;6.208;2023-04-24T07:06:56;3.30;;;2.57;;
7525;SDS011;3804;50.860;6.208;2023-04-24T07:09:25;2.77;;;2.43;;
7525;SDS011;3804;50.860;6.208;2023-04-24T07:11:52;3.40;;;3.00;;
7525;SDS011;3804;50.860;6.208;2023-04-24T07:14:19;5.07;;;2.80;;
7525;SDS011;3804;50.860;6.208;2023-04-24T07:16:47;3.77;;;2.93;;
7525;SDS011;3804;50.860;6.208;2023-04-24T07:19:13;4.40;;;2.87;;
7525;SDS011;3804;50.860;6.208;2023-04-24T07:21:40;6.30;;;3.73;;
7525;SDS011;3804;50.860;6.208;2023-04-24T07:24:07;4.63;;;3.30;;
7525;SDS011;3804;50.860;6.208;2023-04-24T07:26:37;4.83;;;3.77;;
7525;SDS011;3804;50.860;6.208;2023-04-24T07:29:06;5.87;;;4.13;;
7525;SDS011;3804;50.860;6.208;2023-04-24T07:31:33;6.27;;;4.00;;
7525;SDS011;3804;50.860;6.208;2023-04-24T07:34:00;7.17;;;4.87;;
7525;SDS011;3804;50.860;6.208;2023-04-24T07:36:27;5.37;;;4.47;;
7525;SDS011;3804;50.860;6.208;2023-04-24T07:38:54;4.40;;;3.60;;
7525;SDS011;3804;50.860;6.208;2023-04-24T07:41:22;5.90;;;4.00;;
7525;SDS011;3804;50.860;6.208;2023-04-24T07:43:51;6.40;;;4.20;;
7525;SDS011;3804;50.860;6.208;2023-04-24T07:46:19;6.23;;;4.17;;
7525;SDS011;3804;50.860;6.208;2023-04-24T07:48:46;8.77;;;4.43;;
7525;SDS011;3804;50.860;6.208;2023-04-24T07:51:27;6.40;;;3.70;;
7525;SDS011;3804;50.860;6.208;2023-04-24T07:53:54;7.20;;;4.37;;
7525;SDS011;3804;50.860;6.208;2023-04-24T07:56:23;8.23;;;4.40;;
7525;SDS011;3804;50.860;6.208;2023-04-24T07:58:53;6.40;;;4.70;;
7525;SDS011;3804;50.860;6.208;2023-04-24T08:01:20;7.27;;;5.40;;
7525;SDS011;3804;50.860;6.208;2023-04-24T08:03:47;0.17;;;0.17;;
7525;SDS011;3804;50.860;6.208;2023-04-24T08:06:14;0.20;;;0.20;;
7525;SDS011;3804;50.860;6.208;2023-04-24T08:08:41;0.10;;;0.10;;
7525;SDS011;3804;50.860;6.208;2023-04-24T08:11:08;0.10;;;0.10;;
7525;SDS011;3804;50.860;6.208;2023-04-24T08:13:35;0.20;;;0.20;;
7525;SDS011;3804;50.860;6.208;2023-04-24T08:16:02;0.10;;;0.10;;
7525;SDS011;3804;50.860;6.208;2023-04-24T08:18:29;0.10;;;0.10;;
7525;SDS011;3804;50.860;6.208;2023-04-24T08:20:55;0.10;;;0.10;;
7525;SDS011;3804;50.860;6.208;2023-04-24T08:23:28;0.10;;;0.10;;
7525;SDS011;3804;50.860;6.208;2023-04-24T08:25:56;0.10;;;0.10;;
7525;SDS011;3804;50.860;6.208;2023-04-24T08:28:23;0.20;;;0.20;;
7525;SDS011;3804;50.860;6.208;2023-04-24T08:30:50;0.20;;;0.20;;
7525;SDS011;3804;50.860;6.208;2023-04-24T08:33:22;0.20;;;0.20;;
7525;SDS011;3804;50.860;6.208;2023-04-24T08:35:49;0.20;;;0.20;;
7525;SDS011;3804;50.860;6.208;2023-04-24T08:38:16;0.20;;;0.20;;
7525;SDS011;3804;50.860;6.208;2023-04-24T08:40:43;0.10;;;0.10;;
7525;SDS011;3804;50.860;6.208;2023-04-24T08:43:12;0.30;;;0.30;;
7525;SDS011;3804;50.860;6.208;2023-04-24T08:45:40;0.20;;;0.20;;
7525;SDS011;3804;50.860;6.208;2023-04-24T08:48:07;0.10;;;0.10;;
7525;SDS011;3804;50.860;6.208;2023-04-24T08:50:53;0.10;;;0.10;;
7525;SDS011;3804;50.860;6.208;2023-04-24T08:53:19;0.10;;;0.10;;
7525;SDS011;3804;50.860;6.208;2023-04-24T08:55:47;0.10;;;0.10;;
7525;SDS011;3804;50.860;6.208;2023-04-24T08:58:15;0.10;;;0.10;;
7525;SDS011;3804;50.860;6.208;2023-04-24T09:00:43;0.10;;;0.10;;
7525;SDS011;3804;50.860;6.208;2023-04-24T09:03:13;0.10;;;0.10;;
7525;SDS011;3804;50.860;6.208;2023-04-24T09:05:43;0.20;;;0.20;;
7525;SDS011;3804;50.860;6.208;2023-04-24T09:08:15;0.10;;;0.10;;
7525;SDS011;3804;50.860;6.208;2023-04-24T09:10:43;0.10;;;0.10;;
7525;SDS011;3804;50.860;6.208;2023-04-24T09:13:10;0.10;;;0.10;;
7525;SDS011;3804;50.860;6.208;2023-04-24T09:15:38;0.10;;;0.10;;
7525;SDS011;3804;50.860;6.208;2023-04-24T09:18:05;0.37;;;0.37;;
7525;SDS011;3804;50.860;6.208;2023-04-24T09:20:32;0.30;;;0.30;;
7525;SDS011;3804;50.860;6.208;2023-04-24T09:22:59;0.10;;;0.10;;
7525;SDS011;3804;50.860;6.208;2023-04-24T09:25:32;0.10;;;0.10;;
7525;SDS011;3804;50.860;6.208;2023-04-24T09:28:00;0.20;;;0.20;;
7525;SDS011;3804;50.860;6.208;2023-04-24T09:30:28;0.20;;;0.20;;
7525;SDS011;3804;50.860;6.208;2023-04-24T09:33:10;0.10;;;0.10;;
7525;SDS011;3804;50.860;6.208;2023-04-24T09:35:40;0.10;;;0.10;;
7525;SDS011;3804;50.860;6.208;2023-04-24T09:38:07;0.10;;;0.10;;
7525;SDS011;3804;50.860;6.208;2023-04-24T09:40:34;0.10;;;0.10;;
7525;SDS011;3804;50.860;6.208;2023-04-24T09:43:01;0.10;;;0.10;;
7525;SDS011;3804;50.860;6.208;2023-04-24T09:45:35;0.20;;;0.20;;
7525;SDS011;3804;50.860;6.208;2023-04-24T09:48:02;0.10;;;0.10;;
7525;SDS011;3804;50.860;6.208;2023-04-24T09:50:30;0.10;;;0.10;;
7525;SDS011;3804;50.860;6.208;2023-04-24T09:52:58;0.10;;;0.10;;
7525;SDS011;3804;50.860;6.208;2023-04-24T09:55:25;0.10;;;0.10;;
7525;SDS011;3804;50.860;6.208;2023-04-24T09:57:59;0.50;;;0.50;;
7525;SDS011;3804;50.860;6.208;2023-04-24T10:00:28;0.10;;;0.10;;
7525;SDS011;3804;50.860;6.208;2023-04-24T10:02:55;0.20;;;0.20;;
7525;SDS011;3804;50.860;6.208;2023-04-24T10:05:23;0.40;;;0.40;;
7525;SDS011;3804;50.860;6.208;2023-04-24T10:07:50;0.20;;;0.20;;
7525;SDS011;3804;50.860;6.208;2023-04-24T10:10:19;0.20;;;0.20;;
7525;SDS011;3804;50.860;6.208;2023-04-24T10:12:46;0.10;;;0.10;;
7525;SDS011;3804;50.860;6.208;2023-04-24T10:15:13;0.13;;;0.13;;
7525;SDS011;3804;50.860;6.208;2023-04-24T10:17:42;0.20;;;0.20;;
7525;SDS011;3804;50.860;6.208;2023-04-24T10:20:10;0.20;;;0.20;;
7525;SDS011;3804;50.860;6.208;2023-04-24T10:22:37;0.20;;;0.20;;
7525;SDS011;3804;50.860;6.208;2023-04-24T10:25:05;0.20;;;0.20;;
7525;SDS011;3804;50.860;6.208;2023-04-24T10:27:32;0.13;;;0.13;;
7525;SDS011;3804;50.860;6.208;2023-04-24T10:30:00;0.13;;;0.13;;
7525;SDS011;3804;50.860;6.208;2023-04-24T10:32:27;0.17;;;0.17;;
7525;SDS011;3804;50.860;6.208;2023-04-24T10:34:54;0.13;;;0.13;;
7525;SDS011;3804;50.860;6.208;2023-04-24T10:37:23;0.10;;;0.10;;
7525;SDS011;3804;50.860;6.208;2023-04-24T10:39:51;0.20;;;0.20;;
7525;SDS011;3804;50.860;6.208;2023-04-24T10:42:21;0.20;;;0.20;;
7525;SDS011;3804;50.860;6.208;2023-04-24T10:44:48;0.20;;;0.20;;
7525;SDS011;3804;50.860;6.208;2023-04-24T10:47:16;9.00;;;5.00;;
7525;SDS011;3804;50.860;6.208;2023-04-24T10:49:43;10.37;;;5.00;;
7525;SDS011;3804;50.860;6.208;2023-04-24T10:52:10;9.97;;;4.97;;
7525;SDS011;3804;50.860;6.208;2023-04-24T10:54:42;12.53;;;5.00;;
7525;SDS011;3804;50.860;6.208;2023-04-24T10:59:50;7.73;;;4.53;;
7525;SDS011;3804;50.860;6.208;2023-04-24T11:02:18;10.50;;;5.30;;
7525;SDS011;3804;50.860;6.208;2023-04-24T11:04:45;12.87;;;5.17;;
7525;SDS011;3804;50.860;6.208;2023-04-24T11:07:13;9.73;;;5.13;;
7525;SDS011;3804;50.860;6.208;2023-04-24T11:09:39;14.37;;;6.23;;
7525;SDS011;3804;50.860;6.208;2023-04-24T11:12:10;10.57;;;5.83;;
7525;SDS011;3804;50.860;6.208;2023-04-24T11:14:59;12.50;;;5.50;;
7525;SDS011;3804;50.860;6.208;2023-04-24T11:17:31;10.63;;;7.03;;
7525;SDS011;3804;50.860;6.208;2023-04-24T11:20:03;16.90;;;7.53;;
7525;SDS011;3804;50.860;6.208;2023-04-24T11:22:50;8.83;;;6.10;;
7525;SDS011;3804;50.860;6.208;2023-04-24T11:25:19;10.67;;;6.37;;
7525;SDS011;3804;50.860;6.208;2023-04-24T11:27:45;10.80;;;5.70;;
7525;SDS011;3804;50.860;6.208;2023-04-24T11:30:16;9.73;;;5.50;;
7525;SDS011;3804;50.860;6.208;2023-04-24T11:32:43;9.43;;;5.70;;
7525;SDS011;3804;50.860;6.208;2023-04-24T11:37:43;9.43;;;5.93;;
7525;SDS011;3804;50.860;6.208;2023-04-24T11:40:24;9.93;;;5.53;;
7525;SDS011;3804;50.860;6.208;2023-04-24T11:42:52;10.60;;;5.17;;
7525;SDS011;3804;50.860;6.208;2023-04-24T11:45:23;9.77;;;5.03;;
7525;SDS011;3804;50.860;6.208;2023-04-24T11:47:50;7.63;;;4.53;;
7525;SDS011;3804;50.860;6.208;2023-04-24T11:50:18;9.93;;;5.47;;
7525;SDS011;3804;50.860;6.208;2023-04-24T11:52:47;9.90;;;4.70;;
7525;SDS011;3804;50.860;6.208;2023-04-24T11:57:47;8.27;;;4.80;;
7525;SDS011;3804;50.860;6.208;2023-04-24T12:00:21;8.13;;;4.63;;
7525;SDS011;3804;50.860;6.208;2023-04-24T12:02:49;7.87;;;5.00;;
7525;SDS011;3804;50.860;6.208;2023-04-24T12:05:23;7.57;;;4.60;;
7525;SDS011;3804;50.860;6.208;2023-04-24T12:07:51;6.87;;;4.70;;
7525;SDS011;3804;50.860;6.208;2023-04-24T12:10:25;9.10;;;4.73;;
7525;SDS011;3804;50.860;6.208;2023-04-24T12:12:52;6.57;;;4.40;;
7525;SDS011;3804;50.860;6.208;2023-04-24T12:15:19;10.07;;;5.10;;
7525;SDS011;3804;50.860;6.208;2023-04-24T12:17:47;7.27;;;4.63;;
7525;SDS011;3804;50.860;6.208;2023-04-24T12:20:14;9.73;;;5.13;;
7525;SDS011;3804;50.860;6.208;2023-04-24T12:22:51;8.23;;;5.33;;
7525;SDS011;3804;50.860;6.208;2023-04-24T12:25:24;9.50;;;5.77;;
7525;SDS011;3804;50.860;6.208;2023-04-24T12:30:31;8.63;;;4.83;;
7525;SDS011;3804;50.860;6.208;2023-04-24T12:32:58;11.10;;;5.40;;
7525;SDS011;3804;50.860;6.208;2023-04-24T12:35:29;7.50;;;5.37;;
7525;SDS011;3804;50.860;6.208;2023-04-24T12:38:08;9.77;;;5.60;;
7525;SDS011;3804;50.860;6.208;2023-04-24T12:40:35;7.87;;;5.47;;
7525;SDS011;3804;50.860;6.208;2023-04-24T12:43:02;7.63;;;4.50;;
7525;SDS011;3804;50.860;6.208;2023-04-24T12:45:29;8.27;;;4.80;;
7525;SDS011;3804;50.860;6.208;2023-04-24T12:47:55;7.97;;;5.33;;
7525;SDS011;3804;50.860;6.208;2023-04-24T12:50:22;10.03;;;5.40;;
7525;SDS011;3804;50.860;6.208;2023-04-24T12:52:49;10.03;;;4.83;;
7525;SDS011;3804;50.860;6.208;2023-04-24T12:55:16;9.03;;;5.77;;
7525;SDS011;3804;50.860;6.208;2023-04-24T12:57:43;9.13;;;5.47;;
7525;SDS011;3804;50.860;6.208;2023-04-24T13:00:10;7.83;;;4.37;;
7525;SDS011;3804;50.860;6.208;2023-04-24T13:02:37;9.97;;;4.80;;
7525;SDS011;3804;50.860;6.208;2023-04-24T13:05:04;7.07;;;4.93;;
7525;SDS011;3804;50.860;6.208;2023-04-24T13:07:31;9.67;;;4.67;;
7525;SDS011;3804;50.860;6.208;2023-04-24T13:09:57;7.93;;;4.80;;
7525;SDS011;3804;50.860;6.208;2023-04-24T13:12:24;8.67;;;4.60;;
7525;SDS011;3804;50.860;6.208;2023-04-24T13:14:52;5.30;;;4.10;;
7525;SDS011;3804;50.860;6.208;2023-04-24T13:17:19;5.30;;;3.70;;
7525;SDS011;3804;50.860;6.208;2023-04-24T13:19:46;7.33;;;3.70;;
7525;SDS011;3804;50.860;6.208;2023-04-24T13:22:13;5.47;;;3.90;;
7525;SDS011;3804;50.860;6.208;2023-04-24T13:24:40;10.73;;;4.80;;
7525;SDS011;3804;50.860;6.208;2023-04-24T13:27:08;6.17;;;4.00;;
7525;SDS011;3804;50.860;6.208;2023-04-24T13:29:35;5.37;;;3.87;;
7525;SDS011;3804;50.860;6.208;2023-04-24T13:32:02;6.80;;;3.77;;
7525;SDS011;3804;50.860;6.208;2023-04-24T13:34:29;5.77;;;4.20;;
7525;SDS011;3804;50.860;6.208;2023-04-24T13:36:57;6.60;;;3.93;;
7525;SDS011;3804;50.860;6.208;2023-04-24T13:39:24;10.63;;;3.63;;
7525;SDS011;3804;50.860;6.208;2023-04-24T13:41:52;6.77;;;3.23;;
7525;SDS011;3804;50.860;6.208;2023-04-24T13:44:20;5.90;;;3.40;;
7525;SDS011;3804;50.860;6.208;2023-04-24T13:46:47;6.97;;;4.10;;
7525;SDS011;3804;50.860;6.208;2023-04-24T13:49:15;5.57;;;3.70;;
7525;SDS011;3804;50.860;6.208;2023-04-24T13:51:42;4.60;;;3.60;;
7525;SDS011;3804;50.860;6.208;2023-04-24T13:54:09;5.80;;;3.37;;
7525;SDS011;3804;50.860;6.208;2023-04-24T13:56:35;4.97;;;3.53;;
7525;SDS011;3804;50.860;6.208;2023-04-24T13:59:02;5.27;;;3.40;;
7525;SDS011;3804;50.860;6.208;2023-04-24T14:01:29;5.57;;;3.37;;
7525;SDS011;3804;50.860;6.208;2023-04-24T14:03:56;5.67;;;3.20;;
7525;SDS011;3804;50.860;6.208;2023-04-24T14:06:23;5.00;;;3.40;;
7525;SDS011;3804;50.860;6.208;2023-04-24T14:08:50;5.80;;;3.33;;
7525;SDS011;3804;50.860;6.208;2023-04-24T14:11:17;6.30;;;3.60;;
7525;SDS011;3804;50.860;6.208;2023-04-24T14:13:44;4.03;;;3.57;;
7525;SDS011;3804;50.860;6.208;2023-04-24T14:16:12;5.67;;;3.80;;
7525;SDS011;3804;50.860;6.208;2023-04-24T14:18:39;5.50;;;3.40;;
7525;SDS011;3804;50.860;6.208;2023-04-24T14:21:06;6.57;;;3.40;;
7525;SDS011;3804;50.860;6.208;2023-04-24T14:23:33;5.77;;;3.53;;
7525;SDS011;3804;50.860;6.208;2023-04-24T14:26:00;4.93;;;3.40;;
7525;SDS011;3804;50.860;6.208;2023-04-24T14:28:27;5.23;;;3.13;;
7525;SDS011;3804;50.860;6.208;2023-04-24T14:30:54;4.17;;;3.20;;
7525;SDS011;3804;50.860;6.208;2023-04-24T14:33:21;4.63;;;3.10;;
7525;SDS011;3804;50.860;6.208;2023-04-24T14:35:48;4.03;;;2.93;;
7525;SDS011;3804;50.860;6.208;2023-04-24T14:38:15;5.33;;;3.23;;
7525;SDS011;3804;50.860;6.208;2023-04-24T14:40:42;5.50;;;3.40;;
7525;SDS011;3804;50.860;6.208;2023-04-24T14:43:29;4.73;;;3.10;;
7525;SDS011;3804;50.860;6.208;2023-04-24T14:45:56;4.33;;;3.30;;
7525;SDS011;3804;50.860;6.208;2023-04-24T14:48:23;5.83;;;3.77;;
7525;SDS011;3804;50.860;6.208;2023-04-24T14:50:50;4.47;;;3.20;;
7525;SDS011;3804;50.860;6.208;2023-04-24T14:53:17;6.43;;;3.77;;
7525;SDS011;3804;50.860;6.208;2023-04-24T14:55:44;5.37;;;3.10;;
7525;SDS011;3804;50.860;6.208;2023-04-24T14:58:11;6.27;;;3.57;;
7525;SDS011;3804;50.860;6.208;2023-04-24T15:00:38;4.00;;;3.50;;
7525;SDS011;3804;50.860;6.208;2023-04-24T15:03:05;5.27;;;3.83;;
7525;SDS011;3804;50.860;6.208;2023-04-24T15:05:32;5.20;;;3.43;;
7525;SDS011;3804;50.860;6.208;2023-04-24T15:07:59;7.70;;;3.60;;
7525;SDS011;3804;50.860;6.208;2023-04-24T15:10:26;7.67;;;3.50;;
7525;SDS011;3804;50.860;6.208;2023-04-24T15:12:53;5.53;;;3.20;;
7525;SDS011;3804;50.860;6.208;2023-04-24T15:15:20;5.97;;;3.50;;
7525;SDS011;3804;50.860;6.208;2023-04-24T15:17:47;6.93;;;3.20;;
7525;SDS011;3804;50.860;6.208;2023-04-24T15:20:15;6.53;;;3.67;;
7525;SDS011;3804;50.860;6.208;2023-04-24T15:22:42;8.27;;;4.20;;
7525;SDS011;3804;50.860;6.208;2023-04-24T15:25:09;5.07;;;3.30;;
7525;SDS011;3804;50.860;6.208;2023-04-24T15:27:40;7.07;;;3.60;;
7525;SDS011;3804;50.860;6.208;2023-04-24T15:30:07;8.77;;;4.10;;